Time;durP1;ratioP1;P1;durP2;ratioP2;P2;SDS_P1;SDS_P2;PMS_P1;PMS_P2;Temp;Humidity;BMP_temperature;BMP_pressure;BME280_temperature;BME280_humidity;BME280_pressure;Samples;Min_cycle;Max_cycle;Signal;HPM_P1;HPM_P2
2023/08/30 00:02:41;;;;;;;13.27;12.03;;;;;;;18.98;63.04;98150.38;6972246;28;20208;-84
2023/08/30 00:06:06;;;;;;;13.27;11.90;;;;;;;18.92;63.58;98149.56;6971522;28;20733;-84
2023/08/30 00:09:28;;;;;;;13.80;12.50;;;;;;;18.77;63.81;98125.00;6972059;28;20240;-84
2023/08/30 00:12:49;;;;;;;14.50;13.20;;;;;;;18.79;64.08;98143.81;6972195;28;20295;-84
2023/08/30 00:16:12;;;;;;;13.90;12.63;;;;;;;19.03;63.24;98132.06;6976286;28;20308;-83
2023/08/30 00:19:34;;;;;;;16.90;12.40;;;;;;;18.92;63.75;98146.81;6971456;28;20252;-84
2023/08/30 00:22:55;;;;;;;14.37;12.90;;;;;;;18.93;63.90;98134.00;6970136;28;20720;-84
2023/08/30 00:26:17;;;;;;;14.90;13.37;;;;;;;19.07;63.66;98133.16;6970422;28;20259;-84
2023/08/30 00:29:38;;;;;;;14.10;12.70;;;;;;;19.14;62.54;98128.22;6970948;28;20406;-84
2023/08/30 00:33:01;;;;;;;12.37;11.10;;;;;;;19.15;62.53;98126.28;6970515;28;20250;-84
2023/08/30 00:36:23;;;;;;;13.67;12.23;;;;;;;18.95;62.39;98093.53;6970932;28;20284;-84
2023/08/30 00:39:44;;;;;;;14.37;12.97;;;;;;;18.91;62.71;98117.88;6971123;28;20317;-84
2023/08/30 00:43:06;;;;;;;13.53;12.20;;;;;;;18.92;63.41;98108.56;6969507;28;20231;-84
2023/08/30 00:46:28;;;;;;;13.10;11.80;;;;;;;18.91;63.24;98103.38;6968966;28;20288;-83
2023/08/30 00:49:51;;;;;;;16.60;13.40;;;;;;;18.93;63.21;98106.66;6969466;28;20431;-84
2023/08/30 00:53:13;;;;;;;13.60;12.30;;;;;;;18.94;63.32;98103.66;6969338;28;20314;-85
2023/08/30 00:56:34;;;;;;;14.67;13.20;;;;;;;18.98;63.42;98102.00;6968531;28;20313;-83
2023/08/30 00:59:56;;;;;;;14.07;12.50;;;;;;;18.94;63.48;98097.38;6968912;28;20323;-84
2023/08/30 01:03:17;;;;;;;17.23;14.73;;;;;;;18.57;64.04;98083.22;6966878;28;20319;-84
2023/08/30 01:06:41;;;;;;;16.23;14.53;;;;;;;18.63;64.47;98093.03;6967184;28;20299;-84
2023/08/30 01:10:03;;;;;;;17.13;14.80;;;;;;;18.55;64.44;98078.03;6968111;28;20351;-84
2023/08/30 01:13:27;;;;;;;16.30;14.80;;;;;;;18.58;64.01;98077.44;6968265;28;20223;-84
2023/08/30 01:16:49;;;;;;;16.40;14.80;;;;;;;18.64;64.26;98094.66;6968398;28;20680;-84
2023/08/30 01:20:14;;;;;;;16.53;14.83;;;;;;;18.65;64.17;98094.41;6968512;28;20388;-84
2023/08/30 01:23:43;;;;;;;16.47;14.97;;;;;;;18.61;63.87;98081.56;6962213;28;20238;-84
2023/08/30 01:27:11;;;;;;;17.40;15.57;;;;;;;18.59;63.88;98061.91;6968463;28;20675;-83
2023/08/30 01:30:33;;;;;;;17.93;16.03;;;;;;;18.48;63.78;98046.63;6985466;28;20337;-84
2023/08/30 01:33:55;;;;;;;17.30;15.40;;;;;;;18.59;64.15;98081.84;6997856;28;20230;-84
2023/08/30 01:37:17;;;;;;;24.47;21.77;;;;;;;18.45;64.36;98079.94;6997156;28;20211;-83
2023/08/30 01:40:41;;;;;;;28.50;24.23;;;;;;;18.53;64.10;98084.84;6997925;28;20238;-83
2023/08/30 01:44:04;;;;;;;32.10;27.60;;;;;;;18.46;63.89;98062.47;7000601;28;20323;-84
2023/08/30 01:47:28;;;;;;;29.57;26.40;;;;;;;18.69;63.88;98081.03;7001488;28;20210;-83
2023/08/30 01:50:49;;;;;;;32.40;27.77;;;;;;;18.39;63.45;98043.63;7002642;28;20268;-84
2023/08/30 01:54:14;;;;;;;33.53;29.47;;;;;;;18.65;63.53;98085.38;7002711;28;20696;-83
2023/08/30 01:57:35;;;;;;;31.70;27.50;;;;;;;18.69;63.25;98092.75;7001939;28;20231;-84
2023/08/30 02:00:58;;;;;;;27.47;24.13;;;;;;;18.58;63.31;98098.50;7002453;28;20207;-83
2023/08/30 02:04:20;;;;;;;23.00;20.63;;;;;;;18.57;63.34;98080.47;7002544;28;20259;-84
2023/08/30 02:07:48;;;;;;;23.23;20.93;;;;;;;18.55;63.33;98105.31;7001477;28;20235;-83
2023/08/30 02:11:15;;;;;;;24.60;20.07;;;;;;;18.02;63.55;98047.66;7002478;28;20281;-83
2023/08/30 02:14:37;;;;;;;27.63;24.73;;;;;;;18.28;63.54;98071.16;7003365;28;20318;-83
2023/08/30 02:18:01;;;;;;;26.17;23.53;;;;;;;18.33;63.83;98107.47;7000797;28;20318;-84
2023/08/30 02:21:22;;;;;;;23.30;20.90;;;;;;;18.30;63.93;98102.53;7000665;28;20346;-84
2023/08/30 02:24:45;;;;;;;22.10;19.77;;;;;;;18.67;62.92;98103.13;6998666;28;20314;-84
2023/08/30 02:28:06;;;;;;;22.37;18.63;;;;;;;18.59;63.18;98100.13;6999217;28;20494;-85
2023/08/30 02:31:28;;;;;;;21.37;19.17;;;;;;;18.51;63.40;98096.03;7000206;28;20211;-84
2023/08/30 02:34:53;;;;;;;20.07;17.97;;;;;;;18.73;62.66;98109.41;7000080;28;20308;-84
2023/08/30 02:38:14;;;;;;;23.83;19.30;;;;;;;18.60;62.92;98099.03;6999239;28;20230;-85
2023/08/30 02:41:36;;;;;;;25.63;22.10;;;;;;;18.55;62.78;98105.31;6999848;28;20212;-84
2023/08/30 02:44:57;;;;;;;42.77;37.67;;;;;;;18.12;62.64;98099.50;6999090;28;20235;-83
2023/08/30 02:48:19;;;;;;;32.87;28.90;;;;;;;18.42;62.73;98102.31;6998604;28;20290;-83
2023/08/30 02:51:42;;;;;;;27.30;24.37;;;;;;;18.46;62.60;98109.66;7012862;28;20199;-83
2023/08/30 02:55:03;;;;;;;19.40;17.37;;;;;;;18.41;62.30;98114.31;7024516;28;20274;-84
2023/08/30 02:58:25;;;;;;;18.03;15.57;;;;;;;18.21;63.27;98095.97;7018350;28;20227;-83
2023/08/30 03:01:46;;;;;;;14.00;12.67;;;;;;;18.19;63.05;98073.59;7000159;28;20207;-83
2023/08/30 03:05:08;;;;;;;14.43;12.93;;;;;;;18.42;63.23;98108.59;6957912;28;20582;-82
2023/08/30 03:08:32;;;;;;;15.27;12.97;;;;;;;18.31;63.67;98089.69;6943161;28;20301;-83
2023/08/30 03:11:54;;;;;;;14.17;12.87;;;;;;;18.38;63.61;98101.19;6943845;28;20669;-84
2023/08/30 03:15:15;;;;;;;14.93;13.43;;;;;;;18.23;63.89;98061.03;6943983;28;20263;-83
2023/08/30 03:18:37;;;;;;;16.30;14.70;;;;;;;18.33;63.69;98090.31;6945908;28;20714;-83
2023/08/30 03:22:00;;;;;;;15.63;14.00;;;;;;;18.43;63.68;98069.28;6998419;28;20298;-84
2023/08/30 03:25:23;;;;;;;14.37;13.00;;;;;;;18.59;63.26;98079.13;6966551;28;20705;-83
2023/08/30 03:28:45;;;;;;;14.97;13.57;;;;;;;18.39;63.35;98081.03;6970729;28;20665;-83
2023/08/30 03:32:07;;;;;;;15.63;14.13;;;;;;;18.21;63.52;98084.25;6970583;28;20662;-83
2023/08/30 03:35:28;;;;;;;16.23;14.47;;;;;;;18.32;63.41;98072.25;6970710;28;20253;-83
2023/08/30 03:38:50;;;;;;;15.97;14.27;;;;;;;18.50;62.93;98082.63;6970744;28;20240;-86
2023/08/30 03:42:13;;;;;;;15.50;13.97;;;;;;;18.41;63.32;98087.03;6970790;28;20297;-83
2023/08/30 03:45:36;;;;;;;16.43;14.73;;;;;;;18.30;63.82;98077.97;6969924;28;20323;-83
2023/08/30 03:48:57;;;;;;;17.07;15.27;;;;;;;18.25;64.13;98074.41;6969536;28;20239;-83
2023/08/30 03:52:19;;;;;;;16.90;15.33;;;;;;;18.23;64.12;98079.34;6970443;28;20252;-84
2023/08/30 03:55:41;;;;;;;16.50;14.80;;;;;;;18.35;63.81;98075.25;6969913;28;21103;-83
2023/08/30 03:59:04;;;;;;;16.90;15.20;;;;;;;18.51;63.06;98087.03;6970449;28;20361;-84
2023/08/30 04:02:25;;;;;;;15.77;14.17;;;;;;;18.63;63.05;98084.84;6970015;28;20291;-83
2023/08/30 04:05:47;;;;;;;16.87;15.17;;;;;;;18.18;63.59;98082.88;6968760;28;20702;-83
2023/08/30 04:09:10;;;;;;;17.20;15.50;;;;;;;18.08;63.65;98073.84;6969355;28;20290;-85
2023/08/30 04:12:31;;;;;;;15.57;14.07;;;;;;;18.29;63.38;98059.16;6969779;28;20207;-86
2023/08/30 04:15:56;;;;;;;19.07;15.37;;;;;;;18.35;63.75;98088.91;6969508;28;20385;-83
2023/08/30 04:19:17;;;;;;;19.00;15.03;;;;;;;18.19;64.26;98089.16;6970222;28;20368;-83
2023/08/30 04:22:39;;;;;;;16.00;14.40;;;;;;;18.06;64.89;98093.22;6969422;28;20730;-83
2023/08/30 04:26:07;;;;;;;17.43;15.73;;;;;;;18.02;65.22;98089.41;6967904;28;20315;-83
2023/08/30 04:29:28;;;;;;;16.63;14.93;;;;;;;18.36;64.22;98087.00;6954225;28;20254;-83
2023/08/30 04:32:51;;;;;;;16.07;14.50;;;;;;;18.21;64.48;98081.53;6943984;28;20623;-82
2023/08/30 04:36:12;;;;;;;16.13;14.50;;;;;;;18.21;64.20;98060.50;6976438;28;20208;-83
2023/08/30 04:39:34;;;;;;;17.00;15.40;;;;;;;18.28;64.50;98087.53;6969900;28;20716;-82
2023/08/30 04:42:55;;;;;;;16.07;14.57;;;;;;;18.59;63.61;98081.84;6969469;28;20216;-83
2023/08/30 04:46:17;;;;;;;16.33;14.70;;;;;;;18.58;63.67;98085.66;6969429;28;20211;-83
2023/08/30 04:49:40;;;;;;;15.93;14.33;;;;;;;18.34;63.79;98083.75;6971372;28;20213;-82
2023/08/30 04:53:01;;;;;;;16.77;15.00;;;;;;;18.36;63.90;98092.47;6997258;28;20305;-83
2023/08/30 04:56:23;;;;;;;17.83;15.93;;;;;;;17.94;65.08;98092.66;6999742;28;20294;-84
2023/08/30 04:59:45;;;;;;;17.50;15.40;;;;;;;18.29;64.94;98091.91;6982703;28;20320;-82
2023/08/30 05:03:07;;;;;;;20.13;16.40;;;;;;;18.44;64.40;98089.19;6973625;28;20307;-82
2023/08/30 05:06:30;;;;;;;17.53;15.83;;;;;;;18.55;64.21;98088.09;6966005;28;20379;-82
2023/08/30 05:09:51;;;;;;;16.37;14.70;;;;;;;18.36;64.95;98085.13;6969702;28;20287;-82
2023/08/30 05:13:13;;;;;;;16.63;14.93;;;;;;;18.70;63.89;98090.84;6971411;28;20263;-83
2023/08/30 05:16:34;;;;;;;17.17;15.33;;;;;;;18.50;64.09;98058.06;6980609;28;20369;-82
2023/08/30 05:19:56;;;;;;;19.33;15.63;;;;;;;18.56;64.31;98085.09;7001042;28;20751;-82
2023/08/30 05:23:25;;;;;;;17.97;14.80;;;;;;;18.88;63.41;98082.09;6982046;28;20268;-84
2023/08/30 05:26:46;;;;;;;16.77;15.27;;;;;;;18.77;63.66;98059.44;6970246;28;20205;-84
2023/08/30 05:30:09;;;;;;;17.50;15.90;;;;;;;18.98;63.59;98077.41;6973518;28;20205;-84
2023/08/30 05:33:30;;;;;;;16.00;14.53;;;;;;;19.07;63.55;98069.47;6974226;28;20704;-82
2023/08/30 05:36:52;;;;;;;14.70;13.30;;;;;;;19.28;62.41;98060.16;6975232;28;20659;-82
2023/08/30 05:40:16;;;;;;;14.70;13.30;;;;;;;19.37;62.15;98072.16;6975486;28;20232;-83
2023/08/30 05:43:38;;;;;;;13.57;12.33;;;;;;;19.25;61.84;98063.44;6971128;28;20310;-84
2023/08/30 05:46:59;;;;;;;14.63;13.20;;;;;;;19.27;62.38;98053.88;6974210;28;20247;-82
2023/08/30 05:50:21;;;;;;;14.37;13.10;;;;;;;18.98;62.63;98017.31;6973491;28;20281;-83
2023/08/30 05:53:43;;;;;;;15.73;14.27;;;;;;;18.38;62.38;97905.53;6973721;28;20228;-82
2023/08/30 05:57:06;;;;;;;15.27;13.87;;;;;;;19.03;62.31;97991.88;6975836;28;20284;-82
2023/08/30 06:00:27;;;;;;;14.70;12.83;;;;;;;19.16;61.72;98008.50;6977558;28;20650;-83
2023/08/30 06:03:49;;;;;;;14.30;13.00;;;;;;;19.52;62.03;98045.56;6977272;28;20236;-83
2023/08/30 06:07:10;;;;;;;14.20;12.90;;;;;;;19.60;62.43;98068.78;6977961;28;20206;-83
2023/08/30 06:10:32;;;;;;;15.77;14.27;;;;;;;19.18;62.55;98028.19;6977984;28;20213;-81
2023/08/30 06:13:55;;;;;;;15.83;14.43;;;;;;;19.76;62.76;98101.25;6977591;28;20397;-82
2023/08/30 06:17:17;;;;;;;15.80;14.20;;;;;;;19.50;62.86;98066.91;6978842;28;20216;-83
2023/08/30 06:20:41;;;;;;;17.07;15.47;;;;;;;19.86;62.11;98095.72;6981056;28;20234;-85
2023/08/30 06:24:03;;;;;;;14.70;13.43;;;;;;;19.43;61.06;98002.69;6974853;28;20642;-81
2023/08/30 06:27:24;;;;;;;14.80;13.40;;;;;;;19.79;61.23;98080.72;6979781;28;20213;-82
2023/08/30 06:30:47;;;;;;;14.90;13.43;;;;;;;19.30;62.85;98086.13;6977919;28;20216;-82
2023/08/30 06:34:09;;;;;;;13.17;12.07;;;;;;;19.91;62.33;98084.75;6980101;28;20706;-83
2023/08/30 06:37:30;;;;;;;13.30;12.17;;;;;;;20.10;62.14;98091.25;6979770;28;20348;-82
2023/08/30 06:40:52;;;;;;;12.57;11.47;;;;;;;20.14;61.69;98095.06;6979684;28;20313;-84
2023/08/30 06:44:13;;;;;;;10.37;9.47;;;;;;;20.24;60.56;98089.53;6975044;28;20273;-83
2023/08/30 06:47:36;;;;;;;9.27;8.47;;;;;;;20.47;60.22;98088.00;6979228;28;20216;-82
2023/08/30 06:50:58;;;;;;;8.23;6.47;;;;;;;20.59;59.11;98066.53;6973865;28;20234;-84
2023/08/30 06:54:20;;;;;;;6.50;5.60;;;;;;;20.84;57.95;98058.91;6975003;28;20312;-83
2023/08/30 06:57:41;;;;;;;7.13;6.40;;;;;;;19.95;56.71;98001.03;6974008;28;20302;-82
2023/08/30 07:01:29;;;;;;;6.50;5.90;;;;;;;20.58;57.34;98084.06;6955733;28;20750;-82
2023/08/30 07:04:52;;;;;;;7.83;6.33;;;;;;;20.68;56.36;98073.84;6946486;28;20229;-83
2023/08/30 07:08:14;;;;;;;6.53;5.93;;;;;;;20.34;57.11;98094.91;6951790;28;20684;-83
2023/08/30 07:11:36;;;;;;;6.87;6.23;;;;;;;20.83;57.35;98092.06;6951723;28;20220;-83
2023/08/30 07:14:57;;;;;;;6.47;5.87;;;;;;;20.88;57.17;98094.75;6954264;28;20268;-83
2023/08/30 07:18:20;;;;;;;6.93;6.33;;;;;;;20.71;57.19;98036.84;6978763;28;20670;-82
2023/08/30 07:21:43;;;;;;;6.30;5.80;;;;;;;20.43;56.94;98045.84;6978501;28;20228;-83
2023/08/30 07:25:06;;;;;;;8.27;5.60;;;;;;;20.35;54.83;97992.50;6977805;28;20258;-83
2023/08/30 07:28:28;;;;;;;6.27;5.77;;;;;;;21.05;56.14;98093.25;6978725;28;20295;-83
2023/08/30 07:31:51;;;;;;;6.60;6.00;;;;;;;20.74;56.29;98053.50;6979704;28;20702;-83
2023/08/30 07:35:12;;;;;;;6.50;5.77;;;;;;;21.20;55.84;98087.63;6979076;28;20239;-83
2023/08/30 07:38:35;;;;;;;6.27;5.67;;;;;;;21.27;55.99;98083.44;6979384;28;20660;-82
2023/08/30 07:41:57;;;;;;;6.83;6.13;;;;;;;20.78;55.34;98074.56;6979814;28;20210;-83
2023/08/30 07:45:18;;;;;;;7.00;6.30;;;;;;;21.08;56.76;98086.38;6976245;28;20719;-82
2023/08/30 07:48:40;;;;;;;7.53;6.83;;;;;;;20.88;55.33;98073.69;6980176;28;20260;-83
2023/08/30 07:52:02;;;;;;;8.70;7.00;;;;;;;21.22;56.60;98093.63;6974103;28;20218;-84
2023/08/30 07:55:25;;;;;;;6.53;6.03;;;;;;;21.38;55.48;98087.69;6978811;28;20280;-82
2023/08/30 07:58:46;;;;;;;6.63;6.03;;;;;;;21.37;55.21;98077.81;6980876;28;20206;-87
2023/08/30 08:02:08;;;;;;;7.23;6.53;;;;;;;21.44;55.75;98078.31;7003075;28;20210;-86
2023/08/30 08:05:29;;;;;;;6.73;6.03;;;;;;;21.29;55.24;98031.03;6986789;28;20241;-82
2023/08/30 08:08:51;;;;;;;6.27;5.70;;;;;;;21.61;54.40;98077.81;6986569;28;20206;-84
2023/08/30 08:12:14;;;;;;;6.67;5.97;;;;;;;21.65;54.85;98073.38;6986597;28;20231;-85
2023/08/30 08:15:35;;;;;;;6.47;5.80;;;;;;;21.42;54.69;98061.31;6986139;28;20230;-82
2023/08/30 08:19:01;;;;;;;5.77;5.30;;;;;;;21.63;54.81;98083.81;6982302;28;20210;-82
2023/08/30 08:22:22;;;;;;;5.80;5.30;;;;;;;21.67;54.35;98074.72;6990066;28;20668;-82
2023/08/30 08:25:44;;;;;;;6.57;5.07;;;;;;;21.58;54.21;98078.41;6987140;28;20246;-82
2023/08/30 08:29:07;;;;;;;5.13;4.63;;;;;;;21.67;54.24;98080.22;6975473;28;20207;-84
2023/08/30 08:32:30;;;;;;;5.07;4.47;;;;;;;21.67;54.12;98063.75;6967021;28;20340;-83
2023/08/30 08:35:51;;;;;;;4.63;4.23;;;;;;;21.70;53.83;98076.91;6965225;28;20238;-83
2023/08/30 08:39:14;;;;;;;5.67;5.17;;;;;;;21.86;53.37;98074.78;6965388;28;20249;-80
2023/08/30 08:42:35;;;;;;;4.87;4.47;;;;;;;21.80;53.79;98038.38;6986685;28;20214;-85
2023/08/30 08:46:00;;;;;;;4.93;4.53;;;;;;;22.16;53.46;98068.84;6982399;28;20694;-81
2023/08/30 08:49:22;;;;;;;6.50;5.13;;;;;;;21.55;52.70;98048.81;6970755;28;20580;-85
2023/08/30 08:52:44;;;;;;;4.80;4.20;;;;;;;21.60;53.09;98081.69;6964174;28;20248;-83
2023/08/30 08:56:07;;;;;;;4.70;4.17;;;;;;;21.93;52.99;98062.31;6975517;28;20254;-85
2023/08/30 08:59:29;;;;;;;4.90;4.40;;;;;;;22.17;53.24;98043.84;6975387;28;20225;-87
2023/08/30 09:02:58;;;;;;;4.30;3.90;;;;;;;21.49;51.54;97982.22;6962990;28;20203;-89
2023/08/30 09:06:20;;;;;;;4.20;3.70;;;;;;;22.27;53.60;98057.44;6947668;28;20273;-84
2023/08/30 09:09:42;;;;;;;3.90;3.60;;;;;;;22.55;50.88;98028.97;6956244;28;20292;-85
2023/08/30 09:13:03;;;;;;;4.20;3.90;;;;;;;21.44;52.25;98000.69;6973798;28;20237;-86
2023/08/30 09:16:25;;;;;;;5.43;4.03;;;;;;;22.07;53.42;98070.66;6968484;28;20198;-87
2023/08/30 09:19:48;;;;;;;3.97;3.60;;;;;;;21.97;52.79;98070.78;6968280;28;20695;-81
2023/08/30 09:23:17;;;;;;;4.47;3.30;;;;;;;22.41;51.80;98073.97;6975282;28;20222;-81
2023/08/30 09:26:39;;;;;;;3.67;3.37;;;;;;;22.18;51.51;98086.66;6974756;28;20264;-83
2023/08/30 09:30:00;;;;;;;4.10;3.20;;;;;;;22.50;51.17;98070.28;6974523;28;20667;-83
2023/08/30 09:33:22;;;;;;;3.27;3.07;;;;;;;22.91;51.94;98067.66;6973817;28;20245;-83
2023/08/30 09:36:48;;;;;;;2.80;2.60;;;;;;;24.10;49.16;98069.16;6969374;28;20214;-87
2023/08/30 09:40:10;;;;;;;2.90;2.60;;;;;;;24.72;46.21;98069.06;6974870;28;20635;-85
2023/08/30 09:43:33;;;;;;;3.03;2.83;;;;;;;24.34;44.74;98045.72;6977116;28;20235;-82
2023/08/30 09:46:56;;;;;;;2.80;2.60;;;;;;;25.00;45.61;98070.56;6978340;28;20376;-83
2023/08/30 09:50:19;;;;;;;3.20;2.90;;;;;;;24.42;47.98;98066.22;6979417;28;20546;-85
2023/08/30 09:53:44;;;;;;;3.97;3.50;;;;;;;23.90;46.47;97949.25;6979793;28;20298;-83
2023/08/30 09:57:08;;;;;;;4.07;3.00;;;;;;;24.50;43.50;97931.25;6978584;28;20349;-85
2023/08/30 10:00:30;;;;;;;2.90;2.60;;;;;;;24.69;43.40;98042.13;6980744;28;20312;-84
2023/08/30 10:03:52;;;;;;;2.83;2.50;;;;;;;25.34;42.96;98042.34;6973128;28;20223;-83
2023/08/30 10:07:14;;;;;;;3.47;2.30;;;;;;;24.73;43.15;98012.00;6980107;28;20213;-84
2023/08/30 10:10:38;;;;;;;2.70;2.50;;;;;;;25.12;42.20;98045.94;6981350;28;20644;-85
2023/08/30 10:14:00;;;;;;;2.77;2.47;;;;;;;25.23;40.98;97971.97;6981884;28;20774;-87
2023/08/30 10:17:22;;;;;;;2.83;2.50;;;;;;;25.77;41.36;98010.97;6981884;28;20330;-82
2023/08/30 10:20:45;;;;;;;2.50;2.30;;;;;;;25.86;40.45;98011.81;6979378;28;20374;-79
2023/08/30 10:24:08;;;;;;;2.60;2.40;;;;;;;26.41;40.11;98009.25;6979631;28;20296;-86
2023/08/30 10:27:32;;;;;;;2.80;2.23;;;;;;;25.79;41.85;98010.66;6982948;28;20301;-83
2023/08/30 10:30:54;;;;;;;3.63;2.70;;;;;;;25.80;42.44;98009.53;6983157;28;20208;-83
2023/08/30 10:34:17;;;;;;;2.30;2.20;;;;;;;25.19;43.21;98007.69;6983256;28;20259;-83
2023/08/30 10:37:38;;;;;;;2.77;2.57;;;;;;;25.10;43.72;98020.63;6984486;28;20204;-84
2023/08/30 10:41:07;;;;;;;2.77;2.57;;;;;;;25.98;41.34;98003.75;6975406;28;20264;-84
2023/08/30 10:44:30;;;;;;;2.67;2.43;;;;;;;25.96;40.84;98000.47;6996151;28;20263;-85
2023/08/30 10:47:55;;;;;;;2.97;2.67;;;;;;;25.57;42.36;98003.31;6979508;28;20284;-84
2023/08/30 10:51:21;;;;;;;2.80;2.60;;;;;;;25.57;42.44;98003.31;6971866;28;20210;-87
2023/08/30 10:54:43;;;;;;;3.80;2.60;;;;;;;26.10;38.09;97992.03;6974573;28;20295;-85
2023/08/30 10:58:05;;;;;;;4.37;2.60;;;;;;;26.71;39.41;97997.25;6962716;28;20200;-85
2023/08/30 11:01:28;;;;;;;2.77;2.53;;;;;;;26.16;38.71;97972.22;6970423;28;20311;-85
2023/08/30 11:04:50;;;;;;;3.47;3.17;;;;;;;26.28;37.93;97980.66;6980525;28;20791;-80
2023/08/30 11:08:11;;;;;;;7.17;4.93;;;;;;;26.57;39.11;97994.66;6961444;28;20240;-86
2023/08/30 11:11:34;;;;;;;5.00;3.90;;;;;;;26.08;38.98;97923.28;6971157;28;20205;-82
2023/08/30 11:14:56;;;;;;;2.33;2.23;;;;;;;27.43;36.83;97979.41;6955314;28;20234;-81
2023/08/30 11:18:22;;;;;;;2.63;2.40;;;;;;;26.31;38.88;97985.53;6945609;28;20203;-84
2023/08/30 11:21:45;;;;;;;3.40;2.10;;;;;;;26.85;38.63;97970.19;6945011;28;20223;-85
2023/08/30 11:25:09;;;;;;;4.17;2.30;;;;;;;26.39;38.87;97984.72;6943873;28;20339;-86
2023/08/30 11:28:35;;;;;;;2.10;2.00;;;;;;;25.30;39.76;97988.94;6942152;28;20249;-86
2023/08/30 11:31:56;;;;;;;2.73;1.87;;;;;;;26.20;38.52;97981.47;6966641;28;20241;-86
2023/08/30 11:35:19;;;;;;;2.30;2.10;;;;;;;26.82;37.87;97965.28;6964263;28;20693;-86
2023/08/30 11:38:41;;;;;;;2.20;2.10;;;;;;;26.77;36.40;97891.59;6969340;28;20292;-86
2023/08/30 11:42:05;;;;;;;2.57;2.00;;;;;;;27.00;37.68;97967.69;6970172;28;20283;-86
2023/08/30 11:45:26;;;;;;;3.80;1.90;;;;;;;26.80;35.81;97859.72;6969745;28;20253;-87
2023/08/30 11:48:49;;;;;;;3.00;1.93;;;;;;;27.37;35.66;97897.69;6969463;28;20245;-86
2023/08/30 11:52:12;;;;;;;3.70;2.30;;;;;;;27.58;35.48;97875.53;6969793;28;20357;-88
2023/08/30 11:55:34;;;;;;;2.93;2.00;;;;;;;26.91;35.47;97916.28;6970089;28;20563;-88
2023/08/30 11:58:56;;;;;;;2.83;1.77;;;;;;;27.04;36.71;97899.47;6970334;28;20712;-87
2023/08/30 12:02:18;;;;;;;2.00;1.90;;;;;;;27.55;34.22;97904.72;6970078;28;20229;-88
2023/08/30 12:05:45;;;;;;;1.90;1.80;;;;;;;28.10;35.47;97954.38;6969901;28;20328;-86
2023/08/30 12:09:12;;;;;;;1.87;1.77;;;;;;;27.66;33.41;97947.50;6970297;28;20222;-87
2023/08/30 12:12:36;;;;;;;2.10;1.90;;;;;;;26.25;36.28;97856.13;6969687;28;20190;-87
2023/08/30 12:15:59;;;;;;;2.30;2.10;;;;;;;26.47;36.90;97941.59;6969405;28;20232;-87
2023/08/30 12:19:20;;;;;;;2.43;2.23;;;;;;;25.52;37.11;97837.81;6970223;28;20802;-87
2023/08/30 12:22:45;;;;;;;2.00;1.73;;;;;;;26.03;35.61;97837.81;6969511;28;20224;-87
2023/08/30 12:26:09;;;;;;;2.53;2.00;;;;;;;25.41;40.30;97922.06;6969453;28;20232;-86
2023/08/30 12:29:30;;;;;;;7.47;3.90;;;;;;;24.54;47.58;97987.34;6952971;28;20287;-85
2023/08/30 12:33:00;;;;;;;5.37;3.90;;;;;;;22.90;53.36;97984.38;6974408;28;20208;-85
2023/08/30 12:36:22;;;;;;;5.33;4.83;;;;;;;22.49;57.09;97996.41;6970074;28;20191;-85
2023/08/30 12:39:43;;;;;;;5.37;4.90;;;;;;;22.63;55.43;98010.97;6970757;28;20698;-85
2023/08/30 12:43:06;;;;;;;7.30;5.20;;;;;;;22.52;56.49;98004.88;6969640;28;20262;-85
2023/08/30 12:46:28;;;;;;;7.80;7.13;;;;;;;22.31;55.37;97934.06;6969441;28;20217;-85
2023/08/30 12:49:49;;;;;;;6.90;6.27;;;;;;;22.65;55.92;98004.06;6969441;28;20293;-85
2023/08/30 12:53:11;;;;;;;7.63;6.93;;;;;;;22.47;56.17;97998.63;6969629;28;20226;-84
2023/08/30 12:56:32;;;;;;;4.97;4.20;;;;;;;22.22;56.05;98001.75;6968682;28;20211;-85
2023/08/30 12:59:55;;;;;;;4.70;4.30;;;;;;;22.99;54.53;97995.47;6969462;28;20198;-85
2023/08/30 13:03:17;;;;;;;4.17;3.10;;;;;;;23.43;52.54;97991.03;6969991;28;20222;-85
2023/08/30 13:06:39;;;;;;;3.70;3.40;;;;;;;23.44;53.59;97978.09;6977390;28;20655;-85
2023/08/30 13:10:00;;;;;;;3.43;3.23;;;;;;;22.94;53.04;97902.91;6943281;28;20203;-85
2023/08/30 13:13:22;;;;;;;3.13;2.90;;;;;;;23.30;51.38;97969.84;6955077;28;20223;-85
2023/08/30 13:16:45;;;;;;;3.70;3.40;;;;;;;23.07;54.27;97984.59;6944362;28;20192;-85
2023/08/30 13:20:07;;;;;;;3.67;3.30;;;;;;;22.67;54.50;97910.34;6944139;28;20212;-85
2023/08/30 13:23:29;;;;;;;3.13;2.93;;;;;;;22.63;52.79;97846.94;6943308;28;20224;-85
2023/08/30 13:26:52;;;;;;;4.97;3.00;;;;;;;23.44;51.58;97915.63;6942921;28;20767;-85
2023/08/30 13:30:15;;;;;;;3.43;3.13;;;;;;;23.96;51.75;97967.28;6956607;28;20695;-84
2023/08/30 13:33:38;;;;;;;3.57;2.60;;;;;;;24.26;50.78;97965.75;6944322;28;20346;-85
2023/08/30 13:36:59;;;;;;;3.33;2.70;;;;;;;23.99;50.78;97963.94;6972483;28;20296;-85
2023/08/30 13:40:21;;;;;;;6.17;3.00;;;;;;;23.93;50.97;97962.41;6978797;28;20241;-85
2023/08/30 13:43:42;;;;;;;2.50;2.30;;;;;;;24.06;49.78;97961.53;6986621;28;20239;-85
2023/08/30 13:47:04;;;;;;;2.80;2.60;;;;;;;23.79;49.96;97963.56;6977455;28;20296;-85
2023/08/30 13:50:30;;;;;;;2.47;2.10;;;;;;;24.07;49.26;97965.94;6977908;28;20214;-85
2023/08/30 13:53:52;;;;;;;2.23;2.13;;;;;;;24.14;48.95;97952.53;6978478;28;20699;-85
2023/08/30 13:57:13;;;;;;;2.83;2.50;;;;;;;24.19;48.06;97960.66;6978330;28;20785;-84
2023/08/30 14:00:35;;;;;;;2.60;2.40;;;;;;;24.18;47.19;97959.03;6978670;28;20225;-84
2023/08/30 14:03:56;;;;;;;2.20;2.00;;;;;;;23.73;47.29;97893.22;6978575;28;20297;-84
2023/08/30 14:07:19;;;;;;;2.47;2.27;;;;;;;24.35;47.07;97952.84;6978568;28;20206;-84
2023/08/30 14:10:41;;;;;;;2.50;2.30;;;;;;;24.62;46.01;97961.00;6984814;28;20701;-83
2023/08/30 14:14:02;;;;;;;2.03;1.93;;;;;;;24.39;46.72;97921.59;6985293;28;20592;-85
2023/08/30 14:17:24;;;;;;;2.10;1.90;;;;;;;24.98;46.16;97948.69;6977147;28;20244;-85
2023/08/30 14:20:46;;;;;;;1.93;1.83;;;;;;;25.05;47.13;97931.66;6977245;28;20246;-84
2023/08/30 14:24:09;;;;;;;2.77;2.10;;;;;;;25.56;45.78;97942.88;6976701;28;20718;-85
2023/08/30 14:27:37;;;;;;;2.23;1.83;;;;;;;25.56;41.86;97940.13;6976481;28;20208;-84
2023/08/30 14:30:59;;;;;;;2.20;2.00;;;;;;;25.01;43.40;97825.88;6976140;28;20668;-84
2023/08/30 14:34:21;;;;;;;1.80;1.70;;;;;;;25.47;40.76;97903.41;6977451;28;20575;-84
2023/08/30 14:37:42;;;;;;;1.83;1.63;;;;;;;25.59;42.19;97956.06;6982451;28;20211;-85
2023/08/30 14:41:05;;;;;;;2.00;1.90;;;;;;;25.66;41.70;97942.59;6976806;28;20707;-84
2023/08/30 14:44:27;;;;;;;2.00;1.90;;;;;;;25.36;42.82;97946.28;6977870;28;20652;-84
2023/08/30 14:47:49;;;;;;;1.70;1.60;;;;;;;25.17;42.13;97876.69;6977005;28;20212;-85
2023/08/30 14:51:10;;;;;;;1.97;1.87;;;;;;;25.35;42.87;97941.84;6976403;28;20240;-84
2023/08/30 14:54:32;;;;;;;2.93;1.77;;;;;;;25.30;44.43;97951.09;6976846;28;20285;-83
2023/08/30 14:57:55;;;;;;;1.97;1.77;;;;;;;25.31;44.67;97935.38;6951902;28;20243;-84
2023/08/30 15:01:16;;;;;;;2.17;1.97;;;;;;;25.21;45.06;97949.41;6951079;28;20361;-84
2023/08/30 15:04:38;;;;;;;2.13;1.90;;;;;;;25.03;45.53;97936.69;6948562;28;20719;-84
2023/08/30 15:07:59;;;;;;;1.90;1.80;;;;;;;25.13;44.46;97951.00;6952182;28;20301;-85
2023/08/30 15:11:21;;;;;;;2.37;2.10;;;;;;;24.97;43.71;97947.06;6975081;28;20524;-83
2023/08/30 15:14:44;;;;;;;3.70;2.10;;;;;;;24.73;43.82;97963.16;6976634;28;20225;-83
2023/08/30 15:18:05;;;;;;;2.50;2.30;;;;;;;24.61;44.50;97951.09;6960161;28;20299;-83
2023/08/30 15:21:27;;;;;;;2.10;2.00;;;;;;;24.43;47.20;97949.34;6975066;28;20306;-82
2023/08/30 15:24:48;;;;;;;4.43;2.20;;;;;;;24.11;46.48;97944.06;6969086;28;20286;-84
2023/08/30 15:28:10;;;;;;;2.60;2.40;;;;;;;24.40;46.78;97937.00;6963959;28;20204;-84
2023/08/30 15:31:33;;;;;;;2.40;2.20;;;;;;;24.63;46.64;97949.66;6980018;28;20248;-83
2023/08/30 15:34:55;;;;;;;2.40;2.30;;;;;;;24.81;46.52;97940.34;6985628;28;20282;-83
2023/08/30 15:38:16;;;;;;;5.70;2.07;;;;;;;24.78;47.46;97927.19;6975325;28;20315;-83
2023/08/30 15:41:38;;;;;;;2.30;2.03;;;;;;;24.92;47.51;97935.34;6974788;28;20314;-84
2023/08/30 15:44:59;;;;;;;2.40;2.20;;;;;;;24.95;47.89;97918.97;6968428;28;20671;-84